sensor_id;sensor_type;location;lat;lon;timestamp;pressure;altitude;pressure_sealevel;temperature;humidity
68628;BME280;55611;48.602;9.490;2023-03-23T00:00:08;96360;;;17.9;45.5
68628;BME280;55611;48.602;9.490;2023-03-23T00:02:37;96360;;;18;46
68628;BME280;55611;48.602;9.490;2023-03-23T00:05:07;96360;;;18.1;45.5
68628;BME280;55611;48.602;9.490;2023-03-23T00:07:38;96350;;;18;45.5
68628;BME280;55611;48.602;9.490;2023-03-23T00:10:08;96370;;;17.9;45.5
68628;BME280;55611;48.602;9.490;2023-03-23T00:12:39;96370;;;17.7;45.5
68628;BME280;55611;48.602;9.490;2023-03-23T00:17:40;96370;;;17.8;46
68628;BME280;55611;48.602;9.490;2023-03-23T00:20:10;96360;;;17.8;46
68628;BME280;55611;48.602;9.490;2023-03-23T00:22:41;96350;;;17.7;46
68628;BME280;55611;48.602;9.490;2023-03-23T00:25:11;96370;;;17.7;46
68628;BME280;55611;48.602;9.490;2023-03-23T00:27:42;96370;;;17.8;46
68628;BME280;55611;48.602;9.490;2023-03-23T00:30:13;96350;;;17.6;46
68628;BME280;55611;48.602;9.490;2023-03-23T00:32:43;96350;;;17.5;45.5
68628;BME280;55611;48.602;9.490;2023-03-23T00:35:14;96340;;;17.4;45.5
68628;BME280;55611;48.602;9.490;2023-03-23T00:37:56;96350;;;17.4;45.5
68628;BME280;55611;48.602;9.490;2023-03-23T00:40:25;96340;;;17.4;45.5
68628;BME280;55611;48.602;9.490;2023-03-23T00:42:56;96340;;;17.3;46
68628;BME280;55611;48.602;9.490;2023-03-23T00:45:15;96340;;;17.4;46
68628;BME280;55611;48.602;9.490;2023-03-23T00:47:46;96340;;;17.5;46
68628;BME280;55611;48.602;9.490;2023-03-23T00:50:16;96340;;;17.5;46
68628;BME280;55611;48.602;9.490;2023-03-23T00:52:47;96330;;;17.4;46
68628;BME280;55611;48.602;9.490;2023-03-23T00:55:17;96330;;;17.4;46
68628;BME280;55611;48.602;9.490;2023-03-23T00:57:48;96330;;;17.3;46
68628;BME280;55611;48.602;9.490;2023-03-23T01:00:18;96330;;;17.3;46
68628;BME280;55611;48.602;9.490;2023-03-23T01:02:49;96320;;;17.3;46
68628;BME280;55611;48.602;9.490;2023-03-23T01:05:19;96310;;;17.4;46
68628;BME280;55611;48.602;9.490;2023-03-23T01:07:50;96310;;;17.5;46
68628;BME280;55611;48.602;9.490;2023-03-23T01:10:20;96310;;;17.6;46
68628;BME280;55611;48.602;9.490;2023-03-23T01:12:51;96310;;;17.5;46
68628;BME280;55611;48.602;9.490;2023-03-23T01:15:21;96310;;;17.5;46
68628;BME280;55611;48.602;9.490;2023-03-23T01:17:52;96300;;;17.5;46
68628;BME280;55611;48.602;9.490;2023-03-23T01:20:23;96300;;;17.4;46
68628;BME280;55611;48.602;9.490;2023-03-23T01:22:53;96300;;;17.4;46
68628;BME280;55611;48.602;9.490;2023-03-23T01:25:23;96300;;;17.4;46.5
68628;BME280;55611;48.602;9.490;2023-03-23T01:27:54;96300;;;17.4;46.5
68628;BME280;55611;48.602;9.490;2023-03-23T01:30:25;96300;;;17.3;46.5
68628;BME280;55611;48.602;9.490;2023-03-23T01:32:55;96290;;;17.4;46.5
68628;BME280;55611;48.602;9.490;2023-03-23T01:35:25;96290;;;17.4;46.5
68628;BME280;55611;48.602;9.490;2023-03-23T01:37:56;96290;;;17.4;46.5
68628;BME280;55611;48.602;9.490;2023-03-23T01:40:26;96280;;;17.4;46.5
68628;BME280;55611;48.602;9.490;2023-03-23T01:42:57;96280;;;17.4;46.5
68628;BME280;55611;48.602;9.490;2023-03-23T01:45:29;96280;;;17.5;46.5
68628;BME280;55611;48.602;9.490;2023-03-23T01:48:03;96280;;;17.4;46.5
68628;BME280;55611;48.602;9.490;2023-03-23T01:50:30;96280;;;17.4;46.5
68628;BME280;55611;48.602;9.490;2023-03-23T01:52:59;96280;;;17.3;46.5
68628;BME280;55611;48.602;9.490;2023-03-23T01:55:30;96280;;;17.3;46.5
68628;BME280;55611;48.602;9.490;2023-03-23T01:58:00;96280;;;17.3;46.5
68628;BME280;55611;48.602;9.490;2023-03-23T02:00:31;96280;;;17.3;46.5
68628;BME280;55611;48.602;9.490;2023-03-23T02:03:01;96280;;;17.3;46.5
68628;BME280;55611;48.602;9.490;2023-03-23T02:05:34;96280;;;17.1;46.5
68628;BME280;55611;48.602;9.490;2023-03-23T02:08:03;96270;;;17.2;46.5
68628;BME280;55611;48.602;9.490;2023-03-23T02:10:33;96260;;;17.3;46.5
68628;BME280;55611;48.602;9.490;2023-03-23T02:13:04;96260;;;17.3;47
68628;BME280;55611;48.602;9.490;2023-03-23T02:18:08;96250;;;17.2;47
68628;BME280;55611;48.602;9.490;2023-03-23T02:20:43;96250;;;17.2;47
68628;BME280;55611;48.602;9.490;2023-03-23T02:23:08;96250;;;17.2;47
68628;BME280;55611;48.602;9.490;2023-03-23T02:25:53;96250;;;17.2;47
68628;BME280;55611;48.602;9.490;2023-03-23T02:28:12;96240;;;17.3;47
68628;BME280;55611;48.602;9.490;2023-03-23T02:30:39;96240;;;17.3;47
68628;BME280;55611;48.602;9.490;2023-03-23T02:33:28;96250;;;17.6;47
68628;BME280;55611;48.602;9.490;2023-03-23T02:35:39;96250;;;17.6;47.5
68628;BME280;55611;48.602;9.490;2023-03-23T02:38:10;96250;;;17.5;47.5
68628;BME280;55611;48.602;9.490;2023-03-23T02:40:40;96240;;;17.6;47.5
68628;BME280;55611;48.602;9.490;2023-03-23T02:43:11;96250;;;17.6;47
68628;BME280;55611;48.602;9.490;2023-03-23T02:45:40;96250;;;17.6;47
68628;BME280;55611;48.602;9.490;2023-03-23T02:48:11;96240;;;17.6;47
68628;BME280;55611;48.602;9.490;2023-03-23T02:50:42;96240;;;17.5;47
68628;BME280;55611;48.602;9.490;2023-03-23T02:53:12;96230;;;17.4;47
68628;BME280;55611;48.602;9.490;2023-03-23T02:55:42;96240;;;17.5;47
68628;BME280;55611;48.602;9.490;2023-03-23T02:58:13;96230;;;17.5;47
68628;BME280;55611;48.602;9.490;2023-03-23T03:00:43;96230;;;17.5;47.5
68628;BME280;55611;48.602;9.490;2023-03-23T03:03:14;96220;;;17.5;47
68628;BME280;55611;48.602;9.490;2023-03-23T03:05:47;96220;;;17.5;47
68628;BME280;55611;48.602;9.490;2023-03-23T03:08:33;96230;;;17.6;47
68628;BME280;55611;48.602;9.490;2023-03-23T03:13:20;96230;;;17.7;47
68628;BME280;55611;48.602;9.490;2023-03-23T03:15:49;96220;;;17.7;47
68628;BME280;55611;48.602;9.490;2023-03-23T03:18:19;96230;;;17.6;47
68628;BME280;55611;48.602;9.490;2023-03-23T03:20:48;96220;;;17.6;47
68628;BME280;55611;48.602;9.490;2023-03-23T03:23:18;96220;;;17.6;47
68628;BME280;55611;48.602;9.490;2023-03-23T03:25:48;96230;;;17.6;47
68628;BME280;55611;48.602;9.490;2023-03-23T03:28:19;96220;;;17.6;47
68628;BME280;55611;48.602;9.490;2023-03-23T03:30:51;96220;;;17.6;47
68628;BME280;55611;48.602;9.490;2023-03-23T03:33:20;96220;;;17.7;47
68628;BME280;55611;48.602;9.490;2023-03-23T03:35:51;96220;;;17.6;47
68628;BME280;55611;48.602;9.490;2023-03-23T03:38:21;96210;;;17.7;47
68628;BME280;55611;48.602;9.490;2023-03-23T03:40:54;96210;;;17.7;47
68628;BME280;55611;48.602;9.490;2023-03-23T03:43:22;96200;;;17.7;47
68628;BME280;55611;48.602;9.490;2023-03-23T03:45:52;96200;;;17.6;47
68628;BME280;55611;48.602;9.490;2023-03-23T03:48:23;96200;;;17.5;47
68628;BME280;55611;48.602;9.490;2023-03-23T03:50:53;96200;;;17.4;47
68628;BME280;55611;48.602;9.490;2023-03-23T03:53:24;96200;;;17.5;47
68628;BME280;55611;48.602;9.490;2023-03-23T03:55:54;96200;;;17.5;47
68628;BME280;55611;48.602;9.490;2023-03-23T04:00:55;96190;;;17.6;47
68628;BME280;55611;48.602;9.490;2023-03-23T04:03:26;96190;;;17.6;47
68628;BME280;55611;48.602;9.490;2023-03-23T04:05:56;96190;;;17.5;47
68628;BME280;55611;48.602;9.490;2023-03-23T04:08:27;96190;;;17.5;47
68628;BME280;55611;48.602;9.490;2023-03-23T04:13:28;96190;;;17.6;47
68628;BME280;55611;48.602;9.490;2023-03-23T04:15:58;96190;;;17.6;46.5
68628;BME280;55611;48.602;9.490;2023-03-23T04:18:29;96200;;;17.7;46.5
68628;BME280;55611;48.602;9.490;2023-03-23T04:20:59;96190;;;17.7;46.5
68628;BME280;55611;48.602;9.490;2023-03-23T04:23:30;96180;;;17.7;46.5
68628;BME280;55611;48.602;9.490;2023-03-23T04:26:01;96180;;;17.6;46.5
68628;BME280;55611;48.602;9.490;2023-03-23T04:28:31;96190;;;17.6;46.5
68628;BME280;55611;48.602;9.490;2023-03-23T04:31:02;96180;;;17.6;46.5
68628;BME280;55611;48.602;9.490;2023-03-23T04:33:32;96180;;;17.6;46.5
68628;BME280;55611;48.602;9.490;2023-03-23T04:36:03;96180;;;17.5;46.5
68628;BME280;55611;48.602;9.490;2023-03-23T04:38:33;96190;;;17.5;46.5
68628;BME280;55611;48.602;9.490;2023-03-23T04:41:04;96180;;;17.5;46.5
68628;BME280;55611;48.602;9.490;2023-03-23T04:43:34;96180;;;17.5;46.5
68628;BME280;55611;48.602;9.490;2023-03-23T04:46:05;96180;;;17.5;46.5
68628;BME280;55611;48.602;9.490;2023-03-23T04:48:35;96180;;;17.5;46.5
68628;BME280;55611;48.602;9.490;2023-03-23T04:51:06;96190;;;17.5;46.5
68628;BME280;55611;48.602;9.490;2023-03-23T04:53:36;96190;;;17.5;46.5
68628;BME280;55611;48.602;9.490;2023-03-23T04:56:07;96190;;;17.5;46.5
68628;BME280;55611;48.602;9.490;2023-03-23T04:58:37;96190;;;17.6;46.5
68628;BME280;55611;48.602;9.490;2023-03-23T05:01:08;96200;;;17.6;46.5
68628;BME280;55611;48.602;9.490;2023-03-23T05:06:09;96190;;;17.6;46.5
68628;BME280;55611;48.602;9.490;2023-03-23T05:08:39;96200;;;17.6;46.5
68628;BME280;55611;48.602;9.490;2023-03-23T05:11:10;96190;;;17.5;46.5
68628;BME280;55611;48.602;9.490;2023-03-23T05:13:40;96190;;;17.5;46.5
68628;BME280;55611;48.602;9.490;2023-03-23T05:16:11;96190;;;17.5;46.5
68628;BME280;55611;48.602;9.490;2023-03-23T05:18:41;96190;;;17.5;46.5
68628;BME280;55611;48.602;9.490;2023-03-23T05:21:12;96190;;;17.5;46.5
68628;BME280;55611;48.602;9.490;2023-03-23T05:23:42;96180;;;17.5;46.5
68628;BME280;55611;48.602;9.490;2023-03-23T05:26:13;96190;;;17.5;46.5
68628;BME280;55611;48.602;9.490;2023-03-23T05:28:43;96190;;;17.4;46.5
68628;BME280;55611;48.602;9.490;2023-03-23T05:31:14;96190;;;17.5;46.5
68628;BME280;55611;48.602;9.490;2023-03-23T05:33:44;96200;;;17.5;46.5
68628;BME280;55611;48.602;9.490;2023-03-23T05:36:15;96190;;;17.6;46.5
68628;BME280;55611;48.602;9.490;2023-03-23T05:38:45;96200;;;17.6;46.5
68628;BME280;55611;48.602;9.490;2023-03-23T05:41:16;96190;;;17.6;46.5
68628;BME280;55611;48.602;9.490;2023-03-23T05:43:46;96190;;;17.6;46.5
68628;BME280;55611;48.602;9.490;2023-03-23T05:46:17;96190;;;17.6;46.5
68628;BME280;55611;48.602;9.490;2023-03-23T05:48:47;96180;;;17.6;46.5
68628;BME280;55611;48.602;9.490;2023-03-23T05:51:18;96180;;;17.5;46.5
68628;BME280;55611;48.602;9.490;2023-03-23T05:53:49;96180;;;17.6;46.5
68628;BME280;55611;48.602;9.490;2023-03-23T05:56:19;96190;;;17.6;46.5
68628;BME280;55611;48.602;9.490;2023-03-23T05:58:50;96190;;;17.5;46.5
68628;BME280;55611;48.602;9.490;2023-03-23T06:01:20;96190;;;17.6;46.5
68628;BME280;55611;48.602;9.490;2023-03-23T06:03:51;96200;;;17.6;46.5
68628;BME280;55611;48.602;9.490;2023-03-23T06:06:21;96210;;;17.7;46.5
68628;BME280;55611;48.602;9.490;2023-03-23T06:08:52;96210;;;17.6;46.5
68628;BME280;55611;48.602;9.490;2023-03-23T06:11:23;96210;;;17.6;46.5
68628;BME280;55611;48.602;9.490;2023-03-23T06:13:53;96210;;;17.5;46.5
68628;BME280;55611;48.602;9.490;2023-03-23T06:16:23;96210;;;17.6;46.5
68628;BME280;55611;48.602;9.490;2023-03-23T06:18:54;96210;;;17.6;46.5
68628;BME280;55611;48.602;9.490;2023-03-23T06:21:24;96220;;;17.6;46.5
68628;BME280;55611;48.602;9.490;2023-03-23T06:23:55;96230;;;17.6;46.5
68628;BME280;55611;48.602;9.490;2023-03-23T06:26:27;96220;;;17.7;46.5
68628;BME280;55611;48.602;9.490;2023-03-23T06:28:56;96230;;;17.7;46.5
68628;BME280;55611;48.602;9.490;2023-03-23T06:31:26;96240;;;17.6;46.5
68628;BME280;55611;48.602;9.490;2023-03-23T06:33:57;96230;;;17.7;46.5
68628;BME280;55611;48.602;9.490;2023-03-23T06:36:27;96230;;;17.7;46.5
68628;BME280;55611;48.602;9.490;2023-03-23T06:38:58;96230;;;17.7;46.5
68628;BME280;55611;48.602;9.490;2023-03-23T06:41:28;96240;;;17.7;46.5
68628;BME280;55611;48.602;9.490;2023-03-23T06:43:59;96230;;;17.7;46.5
68628;BME280;55611;48.602;9.490;2023-03-23T06:46:29;96240;;;17.7;47
68628;BME280;55611;48.602;9.490;2023-03-23T06:49:00;96240;;;17.7;47
68628;BME280;55611;48.602;9.490;2023-03-23T06:51:30;96250;;;17.8;47
68628;BME280;55611;48.602;9.490;2023-03-23T06:54:01;96250;;;17.8;47
68628;BME280;55611;48.602;9.490;2023-03-23T06:56:32;96250;;;17.8;46.5
68628;BME280;55611;48.602;9.490;2023-03-23T06:59:02;96250;;;17.8;46.5
68628;BME280;55611;48.602;9.490;2023-03-23T07:01:32;96240;;;17.7;46.5
68628;BME280;55611;48.602;9.490;2023-03-23T07:04:03;96240;;;17.7;46.5
68628;BME280;55611;48.602;9.490;2023-03-23T07:06:33;96250;;;17.7;46.5
68628;BME280;55611;48.602;9.490;2023-03-23T07:09:04;96250;;;17.7;46.5
68628;BME280;55611;48.602;9.490;2023-03-23T07:11:35;96250;;;17.8;46.5
68628;BME280;55611;48.602;9.490;2023-03-23T07:14:05;96260;;;17.9;46.5
68628;BME280;55611;48.602;9.490;2023-03-23T07:16:36;96250;;;18;46.5
68628;BME280;55611;48.602;9.490;2023-03-23T07:19:06;96260;;;18;46.5
68628;BME280;55611;48.602;9.490;2023-03-23T07:21:37;96260;;;18.1;46.5
68628;BME280;55611;48.602;9.490;2023-03-23T07:24:11;96260;;;18.2;46.5
68628;BME280;55611;48.602;9.490;2023-03-23T07:26:38;96260;;;18.2;46.5
68628;BME280;55611;48.602;9.490;2023-03-23T07:29:08;96260;;;18.3;46.5
68628;BME280;55611;48.602;9.490;2023-03-23T07:31:39;96260;;;18.4;46.5
68628;BME280;55611;48.602;9.490;2023-03-23T07:34:09;96270;;;18.4;46.5
68628;BME280;55611;48.602;9.490;2023-03-23T07:36:40;96270;;;18.5;46.5
68628;BME280;55611;48.602;9.490;2023-03-23T07:39:10;96280;;;18.5;46.5
68628;BME280;55611;48.602;9.490;2023-03-23T07:41:41;96270;;;18.5;46.5
68628;BME280;55611;48.602;9.490;2023-03-23T07:46:42;96280;;;18.5;46.5
68628;BME280;55611;48.602;9.490;2023-03-23T07:49:12;96290;;;18.5;46.5
68628;BME280;55611;48.602;9.490;2023-03-23T07:51:43;96290;;;18.4;46.5
68628;BME280;55611;48.602;9.490;2023-03-23T07:54:13;96290;;;18.4;46.5
68628;BME280;55611;48.602;9.490;2023-03-23T07:56:44;96300;;;18.4;46.5
68628;BME280;55611;48.602;9.490;2023-03-23T07:59:14;96290;;;18.5;46.5
68628;BME280;55611;48.602;9.490;2023-03-23T08:01:45;96300;;;18.5;46.5
68628;BME280;55611;48.602;9.490;2023-03-23T08:04:15;96300;;;18.6;46.5
68628;BME280;55611;48.602;9.490;2023-03-23T08:06:46;96300;;;18.7;46.5
68628;BME280;55611;48.602;9.490;2023-03-23T08:09:16;96310;;;18.8;46.5
68628;BME280;55611;48.602;9.490;2023-03-23T08:11:47;96310;;;18.8;46.5
68628;BME280;55611;48.602;9.490;2023-03-23T08:14:17;96310;;;18.9;46.5
68628;BME280;55611;48.602;9.490;2023-03-23T08:16:48;96310;;;19;46.5
68628;BME280;55611;48.602;9.490;2023-03-23T08:19:18;96290;;;19;46.5
68628;BME280;55611;48.602;9.490;2023-03-23T08:21:49;96290;;;19.1;47
68628;BME280;55611;48.602;9.490;2023-03-23T08:24:19;96300;;;19.1;47
68628;BME280;55611;48.602;9.490;2023-03-23T08:26:50;96300;;;19.2;47
68628;BME280;55611;48.602;9.490;2023-03-23T08:29:20;96320;;;19.3;46.5
68628;BME280;55611;48.602;9.490;2023-03-23T08:31:51;96300;;;19.2;46.5
68628;BME280;55611;48.602;9.490;2023-03-23T08:34:22;96310;;;19.3;46.5
68628;BME280;55611;48.602;9.490;2023-03-23T08:36:52;96300;;;19.3;46.5
68628;BME280;55611;48.602;9.490;2023-03-23T08:39:23;96300;;;19.4;46.5
68628;BME280;55611;48.602;9.490;2023-03-23T08:41:53;96330;;;19.4;46.5
68628;BME280;55611;48.602;9.490;2023-03-23T08:44:24;96320;;;19.5;46.5
68628;BME280;55611;48.602;9.490;2023-03-23T08:46:54;96320;;;19.5;46.5
68628;BME280;55611;48.602;9.490;2023-03-23T08:49:25;96320;;;19.5;46.5
68628;BME280;55611;48.602;9.490;2023-03-23T08:51:55;96340;;;19.7;46.5
68628;BME280;55611;48.602;9.490;2023-03-23T08:54:26;96340;;;19.7;46.5
68628;BME280;55611;48.602;9.490;2023-03-23T08:56:59;96320;;;19.7;46.5
68628;BME280;55611;48.602;9.490;2023-03-23T08:59:27;96330;;;19.6;46.5
68628;BME280;55611;48.602;9.490;2023-03-23T09:01:57;96340;;;19.5;46.5
68628;BME280;55611;48.602;9.490;2023-03-23T09:04:28;96330;;;19.5;46.5
68628;BME280;55611;48.602;9.490;2023-03-23T09:06:58;96350;;;19.5;46.5
68628;BME280;55611;48.602;9.490;2023-03-23T09:09:29;96350;;;19.5;46
68628;BME280;55611;48.602;9.490;2023-03-23T09:11:59;96350;;;19.4;46
68628;BME280;55611;48.602;9.490;2023-03-23T09:14:30;96360;;;19.2;46
68628;BME280;55611;48.602;9.490;2023-03-23T09:17:00;96370;;;19.2;46
68628;BME280;55611;48.602;9.490;2023-03-23T09:19:32;96360;;;19.2;46.5
68628;BME280;55611;48.602;9.490;2023-03-23T09:22:02;96370;;;19.1;46.5
68628;BME280;55611;48.602;9.490;2023-03-23T09:24:32;96380;;;19.2;46.5
68628;BME280;55611;48.602;9.490;2023-03-23T09:27:03;96380;;;19;46.5
68628;BME280;55611;48.602;9.490;2023-03-23T09:29:33;96380;;;19.1;46.5
68628;BME280;55611;48.602;9.490;2023-03-23T09:32:03;96390;;;19.3;46.5
68628;BME280;55611;48.602;9.490;2023-03-23T09:34:34;96390;;;19.4;46.5
68628;BME280;55611;48.602;9.490;2023-03-23T09:37:04;96390;;;19.3;46.5
68628;BME280;55611;48.602;9.490;2023-03-23T09:39:35;96370;;;19.3;46.5
68628;BME280;55611;48.602;9.490;2023-03-23T09:42:09;96380;;;19.2;46.5
68628;BME280;55611;48.602;9.490;2023-03-23T09:44:40;96400;;;19.1;46.5
68628;BME280;55611;48.602;9.490;2023-03-23T09:47:10;96390;;;19.1;46.5
68628;BME280;55611;48.602;9.490;2023-03-23T09:49:39;96380;;;19.1;46.5
68628;BME280;55611;48.602;9.490;2023-03-23T09:52:12;96390;;;19.1;46.5
68628;BME280;55611;48.602;9.490;2023-03-23T09:54:39;96390;;;19.2;46.5
68628;BME280;55611;48.602;9.490;2023-03-23T09:57:19;96390;;;19.2;46.5
68628;BME280;55611;48.602;9.490;2023-03-23T09:59:41;96390;;;19.1;46.5
68628;BME280;55611;48.602;9.490;2023-03-23T10:02:12;96400;;;19.2;46.5
68628;BME280;55611;48.602;9.490;2023-03-23T10:04:43;96400;;;19;46.5
68628;BME280;55611;48.602;9.490;2023-03-23T10:07:12;96380;;;19;46.5
68628;BME280;55611;48.602;9.490;2023-03-23T10:09:42;96380;;;19;46.5
68628;BME280;55611;48.602;9.490;2023-03-23T10:12:15;96380;;;19;46.5
68628;BME280;55611;48.602;9.490;2023-03-23T10:15:02;96410;;;19;46.5
68628;BME280;55611;48.602;9.490;2023-03-23T10:17:14;96390;;;19.1;46.5
68628;BME280;55611;48.602;9.490;2023-03-23T10:22:14;96380;;;19.1;46.5
68628;BME280;55611;48.602;9.490;2023-03-23T10:24:50;96400;;;19.1;46.5
68628;BME280;55611;48.602;9.490;2023-03-23T10:27:25;96410;;;19.3;46.5
68628;BME280;55611;48.602;9.490;2023-03-23T10:29:48;96400;;;19.5;46.5
68628;BME280;55611;48.602;9.490;2023-03-23T10:37:19;96400;;;19.7;46.5
68628;BME280;55611;48.602;9.490;2023-03-23T10:39:55;96400;;;19.7;46.5
68628;BME280;55611;48.602;9.490;2023-03-23T10:42:22;96400;;;19.6;46.5
68628;BME280;55611;48.602;9.490;2023-03-23T10:44:48;96400;;;19.5;46.5
68628;BME280;55611;48.602;9.490;2023-03-23T10:47:19;96410;;;19.3;46.5
68628;BME280;55611;48.602;9.490;2023-03-23T10:49:53;96400;;;19.4;46.5
68628;BME280;55611;48.602;9.490;2023-03-23T10:52:24;96410;;;19.5;46.5
68628;BME280;55611;48.602;9.490;2023-03-23T10:55:23;96400;;;19.3;46.5
68628;BME280;55611;48.602;9.490;2023-03-23T10:57:29;96410;;;19.3;46.5
68628;BME280;55611;48.602;9.490;2023-03-23T10:59:57;96400;;;19.3;46.5
68628;BME280;55611;48.602;9.490;2023-03-23T11:02:22;96410;;;19.3;46.5
68628;BME280;55611;48.602;9.490;2023-03-23T11:04:55;96420;;;19.3;46.5
68628;BME280;55611;48.602;9.490;2023-03-23T11:07:25;96420;;;19.3;46
68628;BME280;55611;48.602;9.490;2023-03-23T11:09:55;96410;;;19.1;46
68628;BME280;55611;48.602;9.490;2023-03-23T11:12:24;96420;;;19.1;46
68628;BME280;55611;48.602;9.490;2023-03-23T11:15:03;96410;;;19.2;46
68628;BME280;55611;48.602;9.490;2023-03-23T11:17:26;96410;;;19.2;46.5
68628;BME280;55611;48.602;9.490;2023-03-23T11:19:55;96410;;;19.2;46.5
68628;BME280;55611;48.602;9.490;2023-03-23T11:22:27;96410;;;19.3;46.5
68628;BME280;55611;48.602;9.490;2023-03-23T11:24:59;96420;;;19.5;46.5
68628;BME280;55611;48.602;9.490;2023-03-23T11:27:27;96420;;;19.7;46.5
68628;BME280;55611;48.602;9.490;2023-03-23T11:30:08;96410;;;19.9;46.5
68628;BME280;55611;48.602;9.490;2023-03-23T11:32:28;96420;;;20;46.5
68628;BME280;55611;48.602;9.490;2023-03-23T11:34:59;96400;;;20;46.5
68628;BME280;55611;48.602;9.490;2023-03-23T11:37:32;96400;;;20.1;46.5
68628;BME280;55611;48.602;9.490;2023-03-23T11:40:01;96400;;;20.2;46.5
68628;BME280;55611;48.602;9.490;2023-03-23T11:42:41;96400;;;20.4;46.5
68628;BME280;55611;48.602;9.490;2023-03-23T11:45:33;96390;;;20.7;46.5
68628;BME280;55611;48.602;9.490;2023-03-23T11:50:09;96380;;;20.6;46.5
68628;BME280;55611;48.602;9.490;2023-03-23T11:52:35;96390;;;20.5;46.5
68628;BME280;55611;48.602;9.490;2023-03-23T11:55:07;96380;;;20.5;46.5
68628;BME280;55611;48.602;9.490;2023-03-23T11:57:33;96390;;;20.5;46.5
68628;BME280;55611;48.602;9.490;2023-03-23T12:00:14;96390;;;20.4;46.5
68628;BME280;55611;48.602;9.490;2023-03-23T12:02:38;96390;;;20.4;46.5
68628;BME280;55611;48.602;9.490;2023-03-23T12:05:39;96390;;;20.5;46.5
68628;BME280;55611;48.602;9.490;2023-03-23T12:07:40;96380;;;20.4;46.5
68628;BME280;55611;48.602;9.490;2023-03-23T12:10:11;96380;;;20.4;46.5
68628;BME280;55611;48.602;9.490;2023-03-23T12:12:40;96390;;;20.5;46.5
68628;BME280;55611;48.602;9.490;2023-03-23T12:15:12;96370;;;20.5;46.5
68628;BME280;55611;48.602;9.490;2023-03-23T12:20:18;96380;;;20.6;46.5
68628;BME280;55611;48.602;9.490;2023-03-23T12:22:45;96360;;;20.5;46.5
68628;BME280;55611;48.602;9.490;2023-03-23T12:25:14;96360;;;20.6;46.5
68628;BME280;55611;48.602;9.490;2023-03-23T12:30:43;96370;;;20.7;46.5
68628;BME280;55611;48.602;9.490;2023-03-23T12:32:44;96360;;;20.8;46.5
68628;BME280;55611;48.602;9.490;2023-03-23T12:35:14;96350;;;21;46.5
68628;BME280;55611;48.602;9.490;2023-03-23T12:37:45;96350;;;21;46.5
68628;BME280;55611;48.602;9.490;2023-03-23T12:42:47;96360;;;20.6;46.5
68628;BME280;55611;48.602;9.490;2023-03-23T12:47:48;96360;;;20.6;46.5
68628;BME280;55611;48.602;9.490;2023-03-23T12:50:16;96360;;;20.4;46.5
68628;BME280;55611;48.602;9.490;2023-03-23T12:52:49;96360;;;20.3;46.5
68628;BME280;55611;48.602;9.490;2023-03-23T12:55:17;96360;;;20.3;46.5
68628;BME280;55611;48.602;9.490;2023-03-23T12:57:49;96350;;;20.1;46.5
68628;BME280;55611;48.602;9.490;2023-03-23T13:00:24;96340;;;20;46.5
68628;BME280;55611;48.602;9.490;2023-03-23T13:02:52;96340;;;20.1;46.5
68628;BME280;55611;48.602;9.490;2023-03-23T13:05:35;96340;;;20.1;46.5
68628;BME280;55611;48.602;9.490;2023-03-23T13:07:51;96340;;;20.1;46.5
68628;BME280;55611;48.602;9.490;2023-03-23T13:10:20;96330;;;20.1;46.5
68628;BME280;55611;48.602;9.490;2023-03-23T13:12:49;96340;;;20.2;46.5
68628;BME280;55611;48.602;9.490;2023-03-23T13:15:23;96340;;;20.3;46.5
68628;BME280;55611;48.602;9.490;2023-03-23T13:20:27;96320;;;20.4;46.5
68628;BME280;55611;48.602;9.490;2023-03-23T13:22:53;96330;;;20.5;46.5
68628;BME280;55611;48.602;9.490;2023-03-23T13:25:54;96340;;;20.5;46.5
68628;BME280;55611;48.602;9.490;2023-03-23T13:27:56;96330;;;20.5;46.5
68628;BME280;55611;48.602;9.490;2023-03-23T13:30:23;96330;;;20.6;46.5
68628;BME280;55611;48.602;9.490;2023-03-23T13:33:00;96320;;;20.7;46.5
68628;BME280;55611;48.602;9.490;2023-03-23T13:35:23;96320;;;20.8;46.5
68628;BME280;55611;48.602;9.490;2023-03-23T13:37:54;96320;;;20.9;46.5
68628;BME280;55611;48.602;9.490;2023-03-23T13:40:26;96310;;;20.8;46.5
68628;BME280;55611;48.602;9.490;2023-03-23T13:42:56;96310;;;20.8;46.5
68628;BME280;55611;48.602;9.490;2023-03-23T13:45:42;96310;;;20.8;46.5
68628;BME280;55611;48.602;9.490;2023-03-23T13:48:19;96310;;;20.9;46.5
68628;BME280;55611;48.602;9.490;2023-03-23T13:50:28;96300;;;20.7;46.5
68628;BME280;55611;48.602;9.490;2023-03-23T13:55:31;96290;;;20.7;46
68628;BME280;55611;48.602;9.490;2023-03-23T14:03:00;96290;;;20.6;46.5
68628;BME280;55611;48.602;9.490;2023-03-23T14:05:31;96290;;;20.6;46
68628;BME280;55611;48.602;9.490;2023-03-23T14:08:03;96290;;;20.8;46
68628;BME280;55611;48.602;9.490;2023-03-23T14:10:32;96290;;;20.8;46
68628;BME280;55611;48.602;9.490;2023-03-23T14:13:02;96290;;;20.9;46
68628;BME280;55611;48.602;9.490;2023-03-23T14:15:37;96290;;;21;46
68628;BME280;55611;48.602;9.490;2023-03-23T14:18:03;96290;;;20.9;46
68628;BME280;55611;48.602;9.490;2023-03-23T14:20:33;96280;;;20.7;46
68628;BME280;55611;48.602;9.490;2023-03-23T14:23:03;96280;;;20.7;46
68628;BME280;55611;48.602;9.490;2023-03-23T14:25:34;96280;;;20.7;46
68628;BME280;55611;48.602;9.490;2023-03-23T14:28:04;96280;;;20.7;46
68628;BME280;55611;48.602;9.490;2023-03-23T14:30:37;96280;;;20.7;46
68628;BME280;55611;48.602;9.490;2023-03-23T14:33:06;96290;;;20.6;46
68628;BME280;55611;48.602;9.490;2023-03-23T14:35:36;96280;;;20.6;46
68628;BME280;55611;48.602;9.490;2023-03-23T14:38:09;96280;;;20.6;46
68628;BME280;55611;48.602;9.490;2023-03-23T14:40:37;96290;;;20.5;46
68628;BME280;55611;48.602;9.490;2023-03-23T14:43:08;96290;;;20.4;46
68628;BME280;55611;48.602;9.490;2023-03-23T14:45:38;96280;;;20.4;46
68628;BME280;55611;48.602;9.490;2023-03-23T14:48:10;96300;;;20.5;46
68628;BME280;55611;48.602;9.490;2023-03-23T14:50:40;96270;;;20.4;46
68628;BME280;55611;48.602;9.490;2023-03-23T14:53:23;96290;;;20.4;46
68628;BME280;55611;48.602;9.490;2023-03-23T14:55:41;96290;;;20.4;46
68628;BME280;55611;48.602;9.490;2023-03-23T14:58:13;96280;;;20.4;46
68628;BME280;55611;48.602;9.490;2023-03-23T15:00:43;96280;;;20.5;46
68628;BME280;55611;48.602;9.490;2023-03-23T15:03:12;96280;;;20.5;46
68628;BME280;55611;48.602;9.490;2023-03-23T15:05:43;96280;;;20.5;46
68628;BME280;55611;48.602;9.490;2023-03-23T15:08:15;96270;;;20.6;46